createdAt,value
2022-08-22T00:00:20.724Z,96026.47
2022-08-22T00:02:45.362Z,96038.88
2022-08-22T00:02:54.995Z,95997.17
2022-08-22T00:05:55.516Z,96028.11
2022-08-22T00:08:33.405Z,96026.17
2022-08-22T00:11:33.223Z,96019.66
2022-08-22T00:14:09.254Z,96016.12
2022-08-22T00:17:11.632Z,96015.49
2022-08-22T00:20:00.786Z,96010.70
2022-08-22T00:22:48.348Z,96008.73
2022-08-22T00:25:33.839Z,96003.99
2022-08-22T00:28:06.260Z,96004.54
2022-08-22T00:31:05.997Z,96003.35
2022-08-22T00:33:58.902Z,96001.06
2022-08-22T00:36:43.694Z,95998.92
2022-08-22T00:39:45.279Z,96001.30
2022-08-22T00:42:52.374Z,96002.23
2022-08-22T00:45:59.580Z,96001.83
2022-08-22T00:49:10.038Z,96002.19
2022-08-22T00:51:50.997Z,96001.70
2022-08-22T00:54:45.084Z,96002.13
2022-08-22T00:57:40.886Z,96011.36
2022-08-22T01:00:22.198Z,96013.94
2022-08-22T01:03:28.869Z,96018.58
2022-08-22T01:06:07.174Z,96020.30
2022-08-22T01:08:38.490Z,96020.75
2022-08-22T01:11:18.406Z,96017.20
2022-08-22T01:13:55.663Z,96015.59
2022-08-22T01:16:36.114Z,96018.34
2022-08-22T01:19:10.199Z,96021.63
2022-08-22T01:22:16.802Z,96022.89
2022-08-22T01:25:26.111Z,96031.23
2022-08-22T01:28:04.080Z,96036.73
2022-08-22T01:30:52.798Z,96036.61
2022-08-22T01:33:39.870Z,96040.51
2022-08-22T01:36:23.923Z,96042.69
2022-08-22T01:39:18.672Z,96039.09
2022-08-22T01:42:24.597Z,96040.06
2022-08-22T01:45:23.378Z,96042.23
2022-08-22T01:47:59.922Z,96046.51
2022-08-22T01:50:41.988Z,96042.71
2022-08-22T01:53:26.123Z,96034.23
2022-08-22T01:56:19.656Z,96024.44
2022-08-22T01:59:01.858Z,96017.69
2022-08-22T02:02:01.837Z,96018.26
2022-08-22T02:04:54.411Z,96010.45
2022-08-22T02:07:31.932Z,96013.84
2022-08-22T02:10:25.343Z,96015.11
2022-08-22T02:13:28.974Z,96016.30
2022-08-22T02:16:15.085Z,96013.71
2022-08-22T02:19:12.098Z,96010.04
2022-08-22T02:22:18.317Z,96007.09
2022-08-22T02:25:08.763Z,95996.23
2022-08-22T02:27:47.008Z,95991.66
2022-08-22T02:30:20.411Z,95993.90
2022-08-22T02:33:13.479Z,95995.94
2022-08-22T02:36:00.525Z,96001.15
2022-08-22T02:38:39.086Z,96004.43
2022-08-22T02:41:29.083Z,96011.09
2022-08-22T02:44:17.736Z,96012.48
2022-08-22T02:47:04.032Z,96018.40
2022-08-22T02:49:54.509Z,96023.12
2022-08-22T02:52:35.564Z,96027.60
2022-08-22T02:55:28.881Z,96032.98
2022-08-22T02:58:06.531Z,96044.13
2022-08-22T03:00:49.865Z,96033.95
2022-08-22T03:03:32.193Z,96032.77
2022-08-22T03:06:29.375Z,96026.73
2022-08-22T03:09:15.944Z,96036.73
2022-08-22T03:11:49.569Z,96041.76
2022-08-22T03:14:38.983Z,96035.32
2022-08-22T03:17:18.415Z,96028.90
2022-08-22T03:20:13.186Z,96031.85
2022-08-22T03:23:05.836Z,96034.13
2022-08-22T03:25:57.002Z,96042.84
2022-08-22T03:28:37.621Z,96046.77
2022-08-22T03:31:23.276Z,96045.11
2022-08-22T03:34:22.694Z,96046.44
2022-08-22T03:37:07.181Z,96043.18
2022-08-22T03:40:21.363Z,96044.07
2022-08-22T03:43:02.126Z,96043.04
2022-08-22T03:46:18.489Z,96043.94
2022-08-22T03:49:02.173Z,96040.63
2022-08-22T03:51:51.426Z,96043.51
2022-08-22T03:54:54.621Z,96043.29
2022-08-22T03:57:42.119Z,96039.73
2022-08-22T04:00:20.437Z,96041.03
2022-08-22T04:03:18.845Z,96039.11
2022-08-22T04:06:02.911Z,96042.31
2022-08-22T04:08:43.924Z,96041.20
2022-08-22T04:11:42.943Z,96043.30
2022-08-22T04:14:32.575Z,96048.06
2022-08-22T04:17:41.755Z,96054.00
2022-08-22T04:20:38.489Z,96047.17
2022-08-22T04:23:41.059Z,96040.60
2022-08-22T04:26:21.745Z,96045.17
2022-08-22T04:29:17.142Z,96041.34
2022-08-22T04:32:00.988Z,96038.98
2022-08-22T04:34:38.479Z,96029.77
2022-08-22T04:37:33.209Z,96033.84
2022-08-22T04:40:32.006Z,96036.95
2022-08-22T04:43:38.846Z,96033.89
2022-08-22T04:46:24.176Z,96033.90
2022-08-22T04:49:08.450Z,96042.88
2022-08-22T04:51:54.342Z,96047.34
2022-08-22T04:54:43.951Z,96048.94
2022-08-22T04:57:25.699Z,96050.83
2022-08-22T05:00:01.956Z,96051.80
2022-08-22T05:02:31.375Z,96057.60
2022-08-22T05:05:13.394Z,96061.78
2022-08-22T05:08:03.001Z,96065.20
2022-08-22T05:10:38.738Z,96067.61
2022-08-22T05:13:32.882Z,96072.10
2022-08-22T05:16:06.363Z,96079.08
2022-08-22T05:18:43.110Z,96084.16
2022-08-22T05:21:13.919Z,96084.95
2022-08-22T05:23:48.685Z,96083.36
2022-08-22T05:26:19.567Z,96085.94
2022-08-22T05:28:53.490Z,96083.78
2022-08-22T05:31:27.709Z,96080.77
2022-08-22T05:34:04.874Z,96081.24
2022-08-22T05:36:40.269Z,96082.20
2022-08-22T05:39:21.724Z,96080.82
2022-08-22T05:41:56.028Z,96080.82
2022-08-22T05:44:34.947Z,96087.20
2022-08-22T05:47:24.011Z,96087.52
2022-08-22T05:49:55.674Z,96088.64
2022-08-22T05:53:02.416Z,96092.82
2022-08-22T05:56:02.117Z,96093.27
2022-08-22T05:58:39.734Z,96090.25
2022-08-22T06:01:20.223Z,96088.46
2022-08-22T06:03:57.482Z,96087.69
2022-08-22T06:06:29.075Z,96089.34
2022-08-22T06:09:07.510Z,96095.80
2022-08-22T06:11:38.971Z,96095.19
2022-08-22T06:14:15.326Z,96090.18
2022-08-22T06:17:00.149Z,96088.29
2022-08-22T06:19:28.846Z,96088.02
2022-08-22T06:21:58.078Z,96090.70
2022-08-22T06:24:28.302Z,96094.27
2022-08-22T06:27:05.224Z,96095.84
2022-08-22T06:29:58.326Z,96098.23
2022-08-22T06:32:58.299Z,96100.05
2022-08-22T06:35:50.773Z,96103.73
2022-08-22T06:38:20.644Z,96106.52
2022-08-22T06:40:54.443Z,96108.77
2022-08-22T06:43:24.879Z,96106.73
2022-08-22T06:45:53.773Z,96107.02
2022-08-22T06:48:24.694Z,96111.42
2022-08-22T06:50:58.773Z,96111.28
2022-08-22T06:53:51.222Z,96115.90
2022-08-22T06:56:27.157Z,96117.52
2022-08-22T06:59:00.045Z,96113.48
2022-08-22T07:01:35.273Z,96116.77
2022-08-22T07:04:09.317Z,96118.45
2022-08-22T07:06:39.524Z,96121.08
2022-08-22T07:09:34.976Z,96123.54
2022-08-22T07:12:11.156Z,96127.15
2022-08-22T07:14:45.527Z,96127.27
2022-08-22T07:17:30.079Z,96125.36
2022-08-22T07:20:17.460Z,96130.99
2022-08-22T07:22:56.295Z,96130.70
2022-08-22T07:25:25.605Z,96132.03
2022-08-22T07:28:36.658Z,96126.42
2022-08-22T07:31:21.574Z,96128.58
2022-08-22T07:33:57.091Z,96127.54
2022-08-22T07:36:40.771Z,96129.64
2022-08-22T07:39:24.918Z,96132.10
2022-08-22T07:42:14.934Z,96131.61
2022-08-22T07:45:04.528Z,96126.03
2022-08-22T07:48:22.623Z,96121.23
2022-08-22T07:51:08.907Z,96119.65
2022-08-22T07:53:45.493Z,96120.51
2022-08-22T07:56:23.421Z,96124.36
2022-08-22T07:59:12.706Z,96124.94
2022-08-22T08:01:57.207Z,96119.95
2022-08-22T08:04:40.393Z,96123.71
2022-08-22T08:07:14.619Z,96121.98
2022-08-22T08:10:04.609Z,96120.96
2022-08-22T08:12:40.523Z,96123.73
2022-08-22T08:15:15.615Z,96120.27
2022-08-22T08:17:47.636Z,96119.88
2022-08-22T08:20:18.302Z,96119.05
2022-08-22T08:22:48.290Z,96119.67
2022-08-22T08:25:21.888Z,96117.71
2022-08-22T08:28:10.695Z,96115.40
2022-08-22T08:30:54.120Z,96116.92
2022-08-22T08:33:27.002Z,96118.20
2022-08-22T08:36:19.678Z,96116.55
2022-08-22T08:39:35.329Z,96118.89
2022-08-22T08:42:16.512Z,96118.34
2022-08-22T08:45:03.606Z,96118.23
2022-08-22T08:47:35.075Z,96117.27
2022-08-22T08:50:27.257Z,96122.08
2022-08-22T08:53:17.089Z,96125.25
2022-08-22T08:55:57.938Z,96121.38
2022-08-22T08:58:47.119Z,96123.33
2022-08-22T09:01:27.776Z,96125.55
2022-08-22T09:04:15.670Z,96125.20
2022-08-22T09:07:21.726Z,96120.63
2022-08-22T09:10:11.976Z,96114.74
2022-08-22T09:13:12.332Z,96117.95
2022-08-22T09:16:25.463Z,96121.86
2022-08-22T09:18:56.767Z,96117.65
2022-08-22T09:21:59.192Z,96116.85
2022-08-22T09:24:39.843Z,96113.99
2022-08-22T09:27:35.509Z,96113.05
2022-08-22T09:30:16.885Z,96110.33
2022-08-22T09:33:12.357Z,96109.84
2022-08-22T09:36:05.188Z,96111.30
2022-08-22T09:38:34.861Z,96113.98
2022-08-22T09:41:06.200Z,96114.25
2022-08-22T09:43:45.722Z,96111.16
2022-08-22T09:46:31.530Z,96110.02
2022-08-22T09:49:18.299Z,96103.62
2022-08-22T09:52:05.273Z,96098.77
2022-08-22T09:54:55.035Z,96099.65
2022-08-22T09:57:42.543Z,96096.46
2022-08-22T10:00:54.488Z,96095.60
2022-08-22T10:03:46.093Z,96096.63
2022-08-22T10:06:18.774Z,96093.02
2022-08-22T10:08:50.816Z,96092.27
2022-08-22T10:11:42.288Z,96090.10
2022-08-22T10:14:22.377Z,96089.64
2022-08-22T10:16:53.891Z,96091.16
2022-08-22T10:19:40.605Z,96093.41
2022-08-22T10:22:33.414Z,96095.98
2022-08-22T10:25:25.174Z,96095.75
2022-08-22T10:28:17.304Z,96096.17
2022-08-22T10:30:52.109Z,96093.57
2022-08-22T10:33:29.240Z,96092.02
2022-08-22T10:36:13.646Z,96095.10
2022-08-22T10:38:58.476Z,96091.11
2022-08-22T10:41:45.505Z,96087.77
2022-08-22T10:44:52.219Z,96081.40
2022-08-22T10:47:29.946Z,96080.36
2022-08-22T10:50:16.082Z,96078.55
2022-08-22T10:52:51.659Z,96075.19
2022-08-22T10:55:28.756Z,96073.09
2022-08-22T10:58:22.450Z,96073.70
2022-08-22T11:01:00.078Z,96072.63
2022-08-22T11:03:34.311Z,96070.20
2022-08-22T11:06:12.759Z,96065.88
2022-08-22T11:09:00.356Z,96063.92
2022-08-22T11:11:44.015Z,96064.05
2022-08-22T11:14:46.031Z,96068.77
2022-08-22T11:17:27.536Z,96070.02
2022-08-22T11:20:49.996Z,96074.98
2022-08-22T11:23:40.897Z,96069.71
2022-08-22T11:26:15.675Z,96062.79
2022-08-22T11:29:13.784Z,96063.60
2022-08-22T11:32:05.856Z,96061.36
2022-08-22T11:34:50.360Z,96057.52
2022-08-22T11:37:18.725Z,96056.00
2022-08-22T11:40:13.641Z,96051.96
2022-08-22T11:42:53.914Z,96047.55
2022-08-22T11:45:28.297Z,96044.44
2022-08-22T11:48:21.383Z,96044.48
2022-08-22T11:51:13.149Z,96041.92
2022-08-22T11:53:59.006Z,96037.41
2022-08-22T11:56:45.113Z,96036.23
2022-08-22T11:59:33.192Z,96034.40
2022-08-22T12:02:42.655Z,96028.46
2022-08-22T12:05:30.484Z,96020.17
2022-08-22T12:08:34.113Z,96019.73
2022-08-22T12:11:18.352Z,96021.24
2022-08-22T12:14:04.164Z,96017.92
2022-08-22T12:16:55.568Z,96015.95
2022-08-22T12:19:33.091Z,96014.91
2022-08-22T12:22:15.668Z,96009.18
2022-08-22T12:24:54.324Z,96005.88
2022-08-22T12:27:50.700Z,96002.90
2022-08-22T12:30:28.826Z,96003.68
2022-08-22T12:33:26.770Z,96009.38
2022-08-22T12:36:04.846Z,96010.40
2022-08-22T12:39:26.831Z,96003.67
2022-08-22T12:42:14.006Z,96004.88
2022-08-22T12:45:08.614Z,96005.10
2022-08-22T12:48:08.412Z,96006.98
2022-08-22T12:50:47.921Z,96012.33
2022-08-22T12:53:50.138Z,96013.88
2022-08-22T12:56:33.194Z,96008.79
2022-08-22T12:59:13.154Z,96009.80
2022-08-22T13:01:48.644Z,96013.27
2022-08-22T13:04:33.889Z,96009.65
2022-08-22T13:07:07.879Z,96013.83
2022-08-22T13:09:46.391Z,96017.38
2022-08-22T13:12:29.203Z,96022.58
2022-08-22T13:15:20.807Z,96020.76
2022-08-22T13:17:52.201Z,96017.57
2022-08-22T13:20:35.707Z,96012.66
2022-08-22T13:23:14.164Z,96009.62
2022-08-22T13:26:07.966Z,96012.66
2022-08-22T13:29:27.417Z,96012.70
2022-08-22T13:32:02.215Z,96013.20
2022-08-22T13:34:48.374Z,96016.27
2022-08-22T13:37:24.601Z,96019.73
2022-08-22T13:39:58.933Z,96021.66
2022-08-22T13:42:31.319Z,96022.36
2022-08-22T13:45:11.211Z,96023.57
2022-08-22T13:47:49.296Z,96024.54
2022-08-22T13:50:22.736Z,96031.10
2022-08-22T13:53:01.772Z,96032.00
2022-08-22T13:55:38.414Z,96034.46
2022-08-22T13:58:32.785Z,96032.42
2022-08-22T14:01:16.296Z,96029.45
2022-08-22T14:04:28.304Z,96030.46
2022-08-22T14:07:20.086Z,96031.44
2022-08-22T14:10:03.190Z,96026.76
2022-08-22T14:12:49.961Z,96024.89
2022-08-22T14:15:25.591Z,96025.73
2022-08-22T14:18:03.351Z,96029.96
2022-08-22T14:20:33.802Z,96028.63
2022-08-22T14:23:29.518Z,96027.68
2022-08-22T14:25:58.294Z,96025.81
2022-08-22T14:28:33.886Z,96027.52
2022-08-22T14:31:02.549Z,96020.06
2022-08-22T14:33:40.610Z,96018.60
2022-08-22T14:36:37.475Z,96020.52
2022-08-22T14:39:12.331Z,96013.36
2022-08-22T14:41:59.381Z,96009.52
2022-08-22T14:44:37.856Z,96009.13
2022-08-22T14:47:32.410Z,96011.30
2022-08-22T14:50:29.231Z,96011.63
2022-08-22T14:53:11.050Z,96011.02
2022-08-22T14:55:43.115Z,96016.00
2022-08-22T14:58:18.650Z,96021.26
2022-08-22T15:00:58.512Z,96019.19
2022-08-22T15:03:35.079Z,96015.37
2022-08-22T15:06:29.654Z,96012.52
2022-08-22T15:09:00.955Z,96011.96
2022-08-22T15:11:38.133Z,96011.98
2022-08-22T15:14:21.628Z,96014.61
2022-08-22T15:16:54.627Z,96018.41
2022-08-22T15:19:27.825Z,96012.64
2022-08-22T15:22:27.769Z,96025.38
2022-08-22T15:25:01.937Z,96030.80
2022-08-22T15:27:33.296Z,96036.76
2022-08-22T15:30:07.840Z,96037.95
2022-08-22T15:32:49.227Z,96049.20
2022-08-22T15:35:31.438Z,96051.23
2022-08-22T15:38:05.302Z,96056.13
2022-08-22T15:40:42.351Z,96060.63
2022-08-22T15:43:18.933Z,96065.54
2022-08-22T15:45:51.806Z,96070.25
2022-08-22T15:48:33.840Z,96076.23
2022-08-22T15:51:13.626Z,96080.55
2022-08-22T15:53:45.010Z,96082.55
2022-08-22T15:56:13.253Z,96080.73
2022-08-22T15:58:52.091Z,96081.13
2022-08-22T16:01:24.301Z,96078.55
2022-08-22T16:04:06.711Z,96076.95
2022-08-22T16:06:43.022Z,96077.14
2022-08-22T16:09:35.912Z,96079.69
2022-08-22T16:12:11.778Z,96085.48
2022-08-22T16:14:45.781Z,96089.70
2022-08-22T16:17:26.283Z,96093.46
2022-08-22T16:20:19.791Z,96096.67
2022-08-22T16:23:09.115Z,96101.30
2022-08-22T16:25:46.847Z,96106.88
2022-08-22T16:28:41.419Z,96109.40
2022-08-22T16:31:31.496Z,96117.71
2022-08-22T16:34:25.084Z,96122.84
2022-08-22T16:37:03.691Z,96130.40
2022-08-22T16:39:44.671Z,96130.19
2022-08-22T16:42:19.687Z,96125.77
2022-08-22T16:44:50.228Z,96119.08
2022-08-22T16:47:30.698Z,96119.57
2022-08-22T16:50:31.385Z,96118.91
2022-08-22T16:53:04.888Z,96120.67
2022-08-22T16:55:36.165Z,96124.39
2022-08-22T16:58:17.929Z,96127.75
2022-08-22T17:00:58.676Z,96127.18
2022-08-22T17:03:52.069Z,96130.73
2022-08-22T17:06:32.504Z,96136.10
2022-08-22T17:09:09.711Z,96144.75
2022-08-22T17:12:15.746Z,96145.27
2022-08-22T17:15:14.366Z,96140.14
2022-08-22T17:18:11.549Z,96137.30
2022-08-22T17:21:01.643Z,96139.73
2022-08-22T17:24:32.338Z,96145.78
2022-08-22T17:27:24.407Z,96149.21
2022-08-22T17:30:20.303Z,96159.80
2022-08-22T17:33:04.654Z,96169.35
2022-08-22T17:35:50.480Z,96180.30
2022-08-22T17:38:43.449Z,96183.19
2022-08-22T17:41:35.474Z,96184.02
2022-08-22T17:44:10.041Z,96192.85
2022-08-22T17:47:08.646Z,96198.66
2022-08-22T17:49:45.078Z,96211.47
2022-08-22T17:52:35.153Z,96223.27
2022-08-22T17:55:19.600Z,96231.56
2022-08-22T17:57:48.276Z,96242.02
2022-08-22T18:00:26.131Z,96241.25
2022-08-22T18:03:16.201Z,96239.97
2022-08-22T18:05:53.241Z,96236.48
2022-08-22T18:11:55.682Z,96229.02
2022-08-22T18:14:40.838Z,96225.36
2022-08-22T18:17:28.195Z,96216.84
2022-08-22T18:20:08.006Z,96210.60
2022-08-22T18:22:39.180Z,96207.19
2022-08-22T18:25:19.439Z,96208.93
2022-08-22T18:28:23.398Z,96203.72
2022-08-22T18:30:58.124Z,96204.71
2022-08-22T18:33:50.687Z,96199.45
2022-08-22T18:36:30.984Z,96183.82
2022-08-22T18:39:07.105Z,96186.19
2022-08-22T18:41:45.767Z,96190.21
2022-08-22T18:44:29.084Z,96193.04
2022-08-22T18:47:02.391Z,96189.81
2022-08-22T18:49:43.589Z,96191.61
2022-08-22T18:52:19.658Z,96195.23
2022-08-22T18:55:03.498Z,96204.92
2022-08-22T18:58:12.992Z,96218.70
2022-08-22T19:01:07.868Z,96231.19
2022-08-22T19:03:49.691Z,96243.89
2022-08-22T19:07:08.246Z,96249.73
2022-08-22T19:09:48.863Z,96249.32
2022-08-22T19:12:36.438Z,96248.04
2022-08-22T19:15:23.215Z,96249.66
2022-08-22T19:18:10.226Z,96246.48
2022-08-22T19:20:59.122Z,96252.38
2022-08-22T19:23:37.514Z,96256.70
2022-08-22T19:26:32.554Z,96262.02
2022-08-22T19:29:18.671Z,96261.76
2022-08-22T19:32:05.881Z,96262.63
2022-08-22T19:34:47.692Z,96259.10
2022-08-22T19:37:30.972Z,96261.73
2022-08-22T19:40:07.524Z,96263.33
2022-08-22T19:42:39.214Z,96262.75
2022-08-22T19:45:18.077Z,96260.80
2022-08-22T19:47:57.613Z,96261.40
2022-08-22T19:50:33.155Z,96272.44
2022-08-22T19:53:27.957Z,96279.06
2022-08-22T19:56:33.016Z,96287.66
2022-08-22T19:59:11.566Z,96286.95
2022-08-22T20:01:51.585Z,96279.13
2022-08-22T20:04:28.498Z,96275.44
2022-08-22T20:07:17.771Z,96278.02
2022-08-22T20:10:00.700Z,96284.23
2022-08-22T20:12:28.691Z,96289.52
2022-08-22T20:14:57.824Z,96291.80
2022-08-22T20:17:25.992Z,96298.29
2022-08-22T20:20:17.745Z,96302.98
2022-08-22T20:23:16.115Z,96306.16
2022-08-22T20:25:50.467Z,96310.90
2022-08-22T20:28:41.453Z,96320.43
2022-08-22T20:31:27.422Z,96328.25
2022-08-22T20:34:03.892Z,96333.02
2022-08-22T20:36:33.168Z,96329.13
2022-08-22T20:39:07.584Z,96324.84
2022-08-22T20:41:41.440Z,96323.63
2022-08-22T20:44:18.857Z,96329.06
2022-08-22T20:46:53.182Z,96333.70
2022-08-22T20:49:47.378Z,96329.38
2022-08-22T20:52:36.275Z,96328.84
2022-08-22T20:55:19.030Z,96329.66
2022-08-22T20:57:55.014Z,96330.67
2022-08-22T21:00:32.319Z,96323.60
2022-08-22T21:03:21.113Z,96324.17
2022-08-22T21:05:49.272Z,96323.36
2022-08-22T21:08:26.511Z,96323.65
2022-08-22T21:11:20.094Z,96325.83
2022-08-22T21:13:49.435Z,96327.14
2022-08-22T21:16:39.183Z,96323.84
2022-08-22T21:19:19.269Z,96324.81
2022-08-22T21:21:48.121Z,96324.83
2022-08-22T21:24:16.598Z,96326.17
2022-08-22T21:26:47.807Z,96316.05
2022-08-22T21:29:16.031Z,96321.79
2022-08-22T21:31:59.092Z,96322.57
2022-08-22T21:34:37.761Z,96322.02
2022-08-22T21:37:35.461Z,96320.86
2022-08-22T21:40:18.052Z,96310.88
2022-08-22T21:43:07.815Z,96308.85
2022-08-22T21:45:39.431Z,96311.27
2022-08-22T21:48:33.616Z,96312.02
2022-08-22T21:51:42.271Z,96311.52
2022-08-22T21:54:26.201Z,96312.97
2022-08-22T21:56:58.551Z,96310.65
2022-08-22T21:59:51.141Z,96301.63
2022-08-22T22:02:31.391Z,96297.05
2022-08-22T22:05:08.519Z,96295.05
2022-08-22T22:07:40.323Z,96291.27
2022-08-22T22:10:11.972Z,96292.15
2022-08-22T22:12:42.975Z,96291.25
2022-08-22T22:15:21.002Z,96289.74
2022-08-22T22:17:50.195Z,96290.13
2022-08-22T22:20:21.248Z,96288.13
2022-08-22T22:22:51.044Z,96287.77
2022-08-22T22:25:40.853Z,96286.60
2022-08-22T22:28:21.632Z,96284.85
2022-08-22T22:30:53.489Z,96286.14
2022-08-22T22:33:27.347Z,96286.75
2022-08-22T22:35:59.227Z,96286.23
2022-08-22T22:38:27.487Z,96284.31
2022-08-22T22:40:55.690Z,96285.87
2022-08-22T22:43:23.881Z,96290.88
2022-08-22T22:45:52.500Z,96295.61
2022-08-22T22:48:23.977Z,96300.45
2022-08-22T22:50:54.301Z,96302.94
2022-08-22T22:53:33.871Z,96302.38
2022-08-22T22:56:09.972Z,96302.34
2022-08-22T22:58:39.963Z,96295.90
2022-08-22T23:01:15.530Z,96292.91
2022-08-22T23:03:45.127Z,96292.33
2022-08-22T23:06:19.688Z,96289.30
2022-08-22T23:08:49.259Z,96288.91
2022-08-22T23:11:21.385Z,96284.12
2022-08-22T23:13:50.066Z,96280.16
2022-08-22T23:16:24.957Z,96282.13
2022-08-22T23:18:53.880Z,96285.67
2022-08-22T23:21:28.429Z,96283.54
2022-08-22T23:23:58.986Z,96278.39
2022-08-22T23:26:28.577Z,96281.44
2022-08-22T23:28:58.143Z,96278.38
2022-08-22T23:31:32.951Z,96279.58
2022-08-22T23:34:04.987Z,96281.14
2022-08-22T23:36:34.326Z,96285.13
2022-08-22T23:39:05.585Z,96280.52
2022-08-22T23:41:34.518Z,96279.15
2022-08-22T23:44:06.021Z,96273.81
2022-08-22T23:46:34.282Z,96269.58
2022-08-22T23:49:05.698Z,96274.30
2022-08-22T23:51:35.283Z,96277.25
2022-08-22T23:54:04.873Z,96274.29
2022-08-22T23:56:36.874Z,96274.19
2022-08-22T23:59:07.788Z,96272.96
